sensor_id;sensor_type;location;lat;lon;timestamp;pressure;altitude;pressure_sealevel;temperature;humidity
55442;BME280;41313;58.740;50.174;2022-07-23T00:02:35;99596.31;;;21.68;54.33
55442;BME280;41313;58.740;50.174;2022-07-23T00:07:38;99585.94;;;21.56;54.58
55442;BME280;41313;58.740;50.174;2022-07-23T00:12:40;99596.84;;;21.63;54.39
55442;BME280;41313;58.740;50.174;2022-07-23T00:17:42;99587.66;;;21.66;54.08
55442;BME280;41313;58.740;50.174;2022-07-23T00:22:51;99601.03;;;21.66;54.33
55442;BME280;41313;58.740;50.174;2022-07-23T00:27:53;99604.66;;;21.65;54.16
55442;BME280;41313;58.740;50.174;2022-07-23T00:32:58;99615.03;;;21.68;53.93
55442;BME280;41313;58.740;50.174;2022-07-23T00:38:00;99607.25;;;21.24;54.67
55442;BME280;41313;58.740;50.174;2022-07-23T00:43:04;99596.97;;;21.37;54.38
55442;BME280;41313;58.740;50.174;2022-07-23T00:53:07;99612.03;;;21.63;54.18
55442;BME280;41313;58.740;50.174;2022-07-23T00:58:09;99612.03;;;21.87;53.80
55442;BME280;41313;58.740;50.174;2022-07-23T01:03:11;99602.84;;;21.90;54.11
55442;BME280;41313;58.740;50.174;2022-07-23T01:08:13;99614.38;;;22.06;53.87
55442;BME280;41313;58.740;50.174;2022-07-23T01:13:15;99613.91;;;22.19;53.76
55442;BME280;41313;58.740;50.174;2022-07-23T01:18:17;99619.41;;;22.26;53.50
55442;BME280;41313;58.740;50.174;2022-07-23T01:23:19;99594.97;;;22.37;53.15
55442;BME280;41313;58.740;50.174;2022-07-23T01:28:27;99595.75;;;22.54;52.67
55442;BME280;41313;58.740;50.174;2022-07-23T01:33:30;99626.69;;;22.57;53.03
55442;BME280;41313;58.740;50.174;2022-07-23T01:38:31;99622.47;;;22.70;52.42
55442;BME280;41313;58.740;50.174;2022-07-23T01:43:33;99631.94;;;22.89;52.81
55442;BME280;41313;58.740;50.174;2022-07-23T01:48:34;99600.88;;;22.72;52.94
55442;BME280;41313;58.740;50.174;2022-07-23T01:53:56;99630.44;;;22.87;53.24
55442;BME280;41313;58.740;50.174;2022-07-23T01:58:58;99619.56;;;22.96;53.19
55442;BME280;41313;58.740;50.174;2022-07-23T02:03:59;99619.50;;;23.05;52.82
55442;BME280;41313;58.740;50.174;2022-07-23T02:09:01;99593.13;;;23.25;52.52
55442;BME280;41313;58.740;50.174;2022-07-23T02:14:03;99623.50;;;23.71;51.23
55442;BME280;41313;58.740;50.174;2022-07-23T02:19:05;99616.66;;;23.92;50.52
55442;BME280;41313;58.740;50.174;2022-07-23T02:24:06;99620.72;;;24.02;49.71
55442;BME280;41313;58.740;50.174;2022-07-23T02:29:08;99623.75;;;24.22;49.08
55442;BME280;41313;58.740;50.174;2022-07-23T02:34:10;99623.94;;;24.36;48.76
55442;BME280;41313;58.740;50.174;2022-07-23T02:39:12;99620.09;;;24.53;48.67
55442;BME280;41313;58.740;50.174;2022-07-23T02:44:15;99610.09;;;24.76;48.30
55442;BME280;41313;58.740;50.174;2022-07-23T02:49:21;99611.75;;;24.77;48.89
55442;BME280;41313;58.740;50.174;2022-07-23T02:54:25;99607.75;;;25.03;47.69
55442;BME280;41313;58.740;50.174;2022-07-23T02:59:27;99587.06;;;25.04;47.32
55442;BME280;41313;58.740;50.174;2022-07-23T03:04:29;99618.91;;;25.58;47.17
55442;BME280;41313;58.740;50.174;2022-07-23T03:09:31;99610.72;;;25.66;46.75
55442;BME280;41313;58.740;50.174;2022-07-23T03:14:32;99590.13;;;25.73;47.30
55442;BME280;41313;58.740;50.174;2022-07-23T03:19:34;99610.47;;;26.04;47.61
55442;BME280;41313;58.740;50.174;2022-07-23T03:24:36;99581.06;;;25.81;48.79
55442;BME280;41313;58.740;50.174;2022-07-23T03:30:05;99607.56;;;26.27;48.58
55442;BME280;41313;58.740;50.174;2022-07-23T03:35:09;99612.97;;;26.33;48.91
55442;BME280;41313;58.740;50.174;2022-07-23T03:40:16;99617.91;;;26.51;48.32
55442;BME280;41313;58.740;50.174;2022-07-23T03:45:18;99609.66;;;26.59;48.12
55442;BME280;41313;58.740;50.174;2022-07-23T03:50:20;99619.50;;;26.80;47.77
55442;BME280;41313;58.740;50.174;2022-07-23T03:55:21;99594.91;;;26.55;47.72
55442;BME280;41313;58.740;50.174;2022-07-23T04:00:23;99615.59;;;26.83;47.57
55442;BME280;41313;58.740;50.174;2022-07-23T04:05:26;99592.59;;;26.94;47.14
55442;BME280;41313;58.740;50.174;2022-07-23T04:10:36;99612.44;;;27.27;46.92
55442;BME280;41313;58.740;50.174;2022-07-23T04:15:40;99606.47;;;27.32;46.84
55442;BME280;41313;58.740;50.174;2022-07-23T04:20:41;99623.69;;;27.31;47.01
55442;BME280;41313;58.740;50.174;2022-07-23T04:25:44;99626.47;;;27.58;46.51
55442;BME280;41313;58.740;50.174;2022-07-23T04:30:46;99608.38;;;27.52;46.29
55442;BME280;41313;58.740;50.174;2022-07-23T04:35:49;99637.53;;;28.03;45.25
55442;BME280;41313;58.740;50.174;2022-07-23T04:40:54;99612.16;;;27.70;44.77
55442;BME280;41313;58.740;50.174;2022-07-23T04:45:56;99620.09;;;28.05;43.72
55442;BME280;41313;58.740;50.174;2022-07-23T04:50:57;99604.91;;;28.24;43.46
55442;BME280;41313;58.740;50.174;2022-07-23T04:56:02;99621.56;;;28.41;43.80
55442;BME280;41313;58.740;50.174;2022-07-23T05:01:05;99623.53;;;28.72;43.59
55442;BME280;41313;58.740;50.174;2022-07-23T05:06:09;99625.59;;;28.83;43.39
55442;BME280;41313;58.740;50.174;2022-07-23T05:11:11;99618.66;;;29.01;43.50
55442;BME280;41313;58.740;50.174;2022-07-23T05:16:12;99601.00;;;29.05;44.15
55442;BME280;41313;58.740;50.174;2022-07-23T05:21:14;99618.63;;;29.52;43.33
55442;BME280;41313;58.740;50.174;2022-07-23T05:26:16;99602.19;;;29.54;43.08
55442;BME280;41313;58.740;50.174;2022-07-23T05:31:18;99616.31;;;29.56;42.79
55442;BME280;41313;58.740;50.174;2022-07-23T05:36:21;99619.56;;;29.71;40.56
55442;BME280;41313;58.740;50.174;2022-07-23T05:41:28;99595.47;;;29.57;38.66
55442;BME280;41313;58.740;50.174;2022-07-23T05:46:29;99586.38;;;29.83;37.78
55442;BME280;41313;58.740;50.174;2022-07-23T05:51:37;99607.00;;;30.09;37.86
55442;BME280;41313;58.740;50.174;2022-07-23T05:56:40;99592.94;;;30.18;36.86
55442;BME280;41313;58.740;50.174;2022-07-23T06:01:42;99598.41;;;30.37;37.05
55442;BME280;41313;58.740;50.174;2022-07-23T06:06:45;99578.06;;;30.28;35.80
55442;BME280;41313;58.740;50.174;2022-07-23T06:11:48;99583.91;;;30.31;34.99
55442;BME280;41313;58.740;50.174;2022-07-23T06:16:49;99595.03;;;30.41;34.39
55442;BME280;41313;58.740;50.174;2022-07-23T06:21:51;99596.94;;;30.59;35.16
55442;BME280;41313;58.740;50.174;2022-07-23T06:26:52;99593.84;;;30.74;34.63
55442;BME280;41313;58.740;50.174;2022-07-23T06:31:54;99588.38;;;30.81;33.74
55442;BME280;41313;58.740;50.174;2022-07-23T06:36:56;99594.47;;;30.76;33.42
55442;BME280;41313;58.740;50.174;2022-07-23T06:41:57;99583.00;;;30.74;33.56
55442;BME280;41313;58.740;50.174;2022-07-23T06:47:11;99582.38;;;30.72;34.08
55442;BME280;41313;58.740;50.174;2022-07-23T06:52:13;99543.91;;;30.45;34.06
55442;BME280;41313;58.740;50.174;2022-07-23T06:57:14;99569.97;;;31.01;33.61
55442;BME280;41313;58.740;50.174;2022-07-23T07:02:16;99594.22;;;31.15;31.86
55442;BME280;41313;58.740;50.174;2022-07-23T07:07:17;99571.94;;;31.24;32.36
55442;BME280;41313;58.740;50.174;2022-07-23T07:12:19;99596.06;;;31.32;31.76
55442;BME280;41313;58.740;50.174;2022-07-23T07:17:20;99600.63;;;31.32;31.37
55442;BME280;41313;58.740;50.174;2022-07-23T07:22:22;99602.75;;;31.48;30.96
55442;BME280;41313;58.740;50.174;2022-07-23T07:27:23;99602.00;;;31.23;29.95
55442;BME280;41313;58.740;50.174;2022-07-23T07:32:25;99596.88;;;31.33;27.45
55442;BME280;41313;58.740;50.174;2022-07-23T07:37:27;99598.09;;;31.37;28.09
55442;BME280;41313;58.740;50.174;2022-07-23T07:42:29;99596.31;;;31.73;28.28
55442;BME280;41313;58.740;50.174;2022-07-23T07:47:30;99577.28;;;31.73;29.04
55442;BME280;41313;58.740;50.174;2022-07-23T07:52:31;99586.06;;;31.87;28.30
55442;BME280;41313;58.740;50.174;2022-07-23T07:57:33;99602.31;;;31.63;28.03
55442;BME280;41313;58.740;50.174;2022-07-23T08:02:48;99607.06;;;31.79;25.70
55442;BME280;41313;58.740;50.174;2022-07-23T08:07:50;99604.81;;;31.88;25.27
55442;BME280;41313;58.740;50.174;2022-07-23T08:12:54;99607.91;;;31.80;26.74
55442;BME280;41313;58.740;50.174;2022-07-23T08:17:59;99602.97;;;32.00;26.34
55442;BME280;41313;58.740;50.174;2022-07-23T08:23:06;99602.63;;;31.97;28.26
55442;BME280;41313;58.740;50.174;2022-07-23T08:28:10;99585.91;;;31.70;27.92
55442;BME280;41313;58.740;50.174;2022-07-23T08:33:16;99580.34;;;31.65;27.49
55442;BME280;41313;58.740;50.174;2022-07-23T08:38:20;99604.41;;;32.15;26.76
55442;BME280;41313;58.740;50.174;2022-07-23T08:43:24;99598.03;;;32.21;27.12
55442;BME280;41313;58.740;50.174;2022-07-23T08:48:29;99596.03;;;32.05;27.28
55442;BME280;41313;58.740;50.174;2022-07-23T08:53:33;99605.66;;;31.77;27.62
55442;BME280;41313;58.740;50.174;2022-07-23T08:58:36;99601.81;;;31.96;28.25
55442;BME280;41313;58.740;50.174;2022-07-23T09:03:37;99602.28;;;31.93;29.45
55442;BME280;41313;58.740;50.174;2022-07-23T09:08:41;99597.25;;;31.78;29.26
55442;BME280;41313;58.740;50.174;2022-07-23T09:13:53;99599.88;;;31.85;29.15
55442;BME280;41313;58.740;50.174;2022-07-23T09:19:03;99583.41;;;32.22;28.37
55442;BME280;41313;58.740;50.174;2022-07-23T09:24:08;99589.41;;;32.48;28.40
55442;BME280;41313;58.740;50.174;2022-07-23T09:29:13;99573.56;;;32.56;26.21
55442;BME280;41313;58.740;50.174;2022-07-23T09:34:20;99558.56;;;32.54;26.29
55442;BME280;41313;58.740;50.174;2022-07-23T09:39:29;99577.13;;;32.45;27.59
55442;BME280;41313;58.740;50.174;2022-07-23T09:44:41;99577.00;;;32.28;28.02
55442;BME280;41313;58.740;50.174;2022-07-23T09:50:04;99580.50;;;32.76;27.25
55442;BME280;41313;58.740;50.174;2022-07-23T09:55:07;99566.63;;;32.89;27.11
55442;BME280;41313;58.740;50.174;2022-07-23T10:00:10;99554.31;;;32.86;26.63
55442;BME280;41313;58.740;50.174;2022-07-23T10:05:12;99580.06;;;32.96;26.84
55442;BME280;41313;58.740;50.174;2022-07-23T10:10:43;99583.59;;;32.67;27.89
55442;BME280;41313;58.740;50.174;2022-07-23T10:16:05;99569.78;;;32.98;27.36
55442;BME280;41313;58.740;50.174;2022-07-23T10:21:08;99554.75;;;32.95;27.15
55442;BME280;41313;58.740;50.174;2022-07-23T10:26:26;99580.16;;;33.41;27.48
55442;BME280;41313;58.740;50.174;2022-07-23T10:37:13;99583.75;;;32.89;27.39
55442;BME280;41313;58.740;50.174;2022-07-23T10:42:33;99556.84;;;32.76;27.50
55442;BME280;41313;58.740;50.174;2022-07-23T10:47:35;99582.22;;;32.94;27.35
55442;BME280;41313;58.740;50.174;2022-07-23T10:58:11;99579.13;;;33.02;27.00
55442;BME280;41313;58.740;50.174;2022-07-23T11:03:33;99571.41;;;32.70;27.61
55442;BME280;41313;58.740;50.174;2022-07-23T11:08:37;99574.28;;;32.63;27.13
55442;BME280;41313;58.740;50.174;2022-07-23T11:13:45;99572.34;;;32.76;27.56
55442;BME280;41313;58.740;50.174;2022-07-23T11:18:56;99566.66;;;32.77;26.95
55442;BME280;41313;58.740;50.174;2022-07-23T11:24:12;99569.53;;;32.71;28.14
55442;BME280;41313;58.740;50.174;2022-07-23T11:34:44;99532.66;;;32.91;28.34
55442;BME280;41313;58.740;50.174;2022-07-23T11:39:47;99520.63;;;32.87;28.20
55442;BME280;41313;58.740;50.174;2022-07-23T11:44:50;99553.22;;;33.11;28.40
55442;BME280;41313;58.740;50.174;2022-07-23T11:49:56;99541.41;;;33.22;28.64
55442;BME280;41313;58.740;50.174;2022-07-23T11:55:00;99535.50;;;32.97;28.47
55442;BME280;41313;58.740;50.174;2022-07-23T12:00:08;99528.94;;;33.09;28.29
55442;BME280;41313;58.740;50.174;2022-07-23T12:05:19;99511.59;;;32.70;28.15
55442;BME280;41313;58.740;50.174;2022-07-23T12:10:27;99535.19;;;32.81;27.89
55442;BME280;41313;58.740;50.174;2022-07-23T12:15:35;99508.75;;;32.65;27.92
55442;BME280;41313;58.740;50.174;2022-07-23T12:20:41;99498.88;;;32.87;27.75
55442;BME280;41313;58.740;50.174;2022-07-23T12:25:45;99495.28;;;32.99;27.14
55442;BME280;41313;58.740;50.174;2022-07-23T12:30:52;99533.94;;;33.29;26.93
55442;BME280;41313;58.740;50.174;2022-07-23T12:35:56;99524.16;;;33.17;26.82
55442;BME280;41313;58.740;50.174;2022-07-23T12:40:59;99525.09;;;33.22;26.06
55442;BME280;41313;58.740;50.174;2022-07-23T12:46:09;99519.09;;;33.20;25.37
55442;BME280;41313;58.740;50.174;2022-07-23T12:56:31;99498.56;;;33.29;26.45
55442;BME280;41313;58.740;50.174;2022-07-23T13:01:35;99521.75;;;33.32;27.52
55442;BME280;41313;58.740;50.174;2022-07-23T13:06:39;99504.44;;;33.55;26.14
55442;BME280;41313;58.740;50.174;2022-07-23T13:11:42;99491.22;;;33.47;27.01
55442;BME280;41313;58.740;50.174;2022-07-23T13:16:45;99485.91;;;33.40;26.38
55442;BME280;41313;58.740;50.174;2022-07-23T13:21:47;99498.47;;;33.41;27.34
55442;BME280;41313;58.740;50.174;2022-07-23T13:26:48;99510.75;;;33.55;27.57
55442;BME280;41313;58.740;50.174;2022-07-23T13:31:51;99514.44;;;33.66;27.94
55442;BME280;41313;58.740;50.174;2022-07-23T13:36:53;99508.25;;;33.71;27.44
55442;BME280;41313;58.740;50.174;2022-07-23T13:41:54;99513.28;;;33.62;27.55
55442;BME280;41313;58.740;50.174;2022-07-23T13:46:55;99513.34;;;33.67;27.40
55442;BME280;41313;58.740;50.174;2022-07-23T13:51:57;99513.34;;;33.67;27.80
55442;BME280;41313;58.740;50.174;2022-07-23T13:56:58;99517.66;;;33.63;27.86
55442;BME280;41313;58.740;50.174;2022-07-23T14:02:02;99517.81;;;33.56;28.56
55442;BME280;41313;58.740;50.174;2022-07-23T14:07:04;99513.28;;;33.62;28.51
55442;BME280;41313;58.740;50.174;2022-07-23T14:12:06;99512.19;;;33.63;28.32
55442;BME280;41313;58.740;50.174;2022-07-23T14:17:07;99517.13;;;33.49;28.25
55442;BME280;41313;58.740;50.174;2022-07-23T14:22:09;99494.88;;;33.52;28.81
55442;BME280;41313;58.740;50.174;2022-07-23T14:27:10;99508.63;;;33.46;29.06
55442;BME280;41313;58.740;50.174;2022-07-23T14:32:12;99511.31;;;33.12;29.14
55442;BME280;41313;58.740;50.174;2022-07-23T14:37:15;99503.53;;;33.04;28.89
55442;BME280;41313;58.740;50.174;2022-07-23T14:42:17;99498.94;;;33.21;28.59
55442;BME280;41313;58.740;50.174;2022-07-23T14:47:19;99514.63;;;33.14;29.31
55442;BME280;41313;58.740;50.174;2022-07-23T14:52:20;99510.97;;;33.08;30.04
55442;BME280;41313;58.740;50.174;2022-07-23T14:57:22;99503.25;;;33.17;29.92
55442;BME280;41313;58.740;50.174;2022-07-23T15:02:24;99499.28;;;33.08;29.75
55442;BME280;41313;58.740;50.174;2022-07-23T15:07:25;99492.19;;;32.95;29.87
55442;BME280;41313;58.740;50.174;2022-07-23T15:12:27;99445.13;;;32.95;30.78
55442;BME280;41313;58.740;50.174;2022-07-23T15:17:29;99493.84;;;33.08;31.22
55442;BME280;41313;58.740;50.174;2022-07-23T15:22:31;99491.50;;;33.00;31.43
55442;BME280;41313;58.740;50.174;2022-07-23T15:27:32;99473.53;;;32.87;31.09
55442;BME280;41313;58.740;50.174;2022-07-23T15:32:34;99487.50;;;32.90;31.68
55442;BME280;41313;58.740;50.174;2022-07-23T15:37:36;99464.66;;;32.63;32.49
55442;BME280;41313;58.740;50.174;2022-07-23T15:42:37;99495.75;;;32.67;31.96
55442;BME280;41313;58.740;50.174;2022-07-23T15:47:40;99504.75;;;32.56;32.29
55442;BME280;41313;58.740;50.174;2022-07-23T15:52:42;99510.81;;;32.34;32.99
55442;BME280;41313;58.740;50.174;2022-07-23T15:57:44;99513.78;;;32.21;34.35
55442;BME280;41313;58.740;50.174;2022-07-23T16:02:46;99502.94;;;31.97;34.21
55442;BME280;41313;58.740;50.174;2022-07-23T16:07:48;99514.50;;;31.81;34.73
55442;BME280;41313;58.740;50.174;2022-07-23T16:12:50;99504.53;;;31.51;36.32
55442;BME280;41313;58.740;50.174;2022-07-23T16:17:54;99511.59;;;31.41;36.28
55442;BME280;41313;58.740;50.174;2022-07-23T16:22:56;99512.13;;;31.31;36.34
55442;BME280;41313;58.740;50.174;2022-07-23T16:27:57;99507.19;;;31.28;35.89
55442;BME280;41313;58.740;50.174;2022-07-23T16:32:59;99497.22;;;31.10;36.48
55442;BME280;41313;58.740;50.174;2022-07-23T16:38:02;99492.69;;;30.92;36.87
55442;BME280;41313;58.740;50.174;2022-07-23T16:43:04;99492.41;;;30.82;37.32
55442;BME280;41313;58.740;50.174;2022-07-23T16:48:06;99506.72;;;30.71;38.20
55442;BME280;41313;58.740;50.174;2022-07-23T16:53:08;99494.09;;;30.46;39.01
55442;BME280;41313;58.740;50.174;2022-07-23T16:58:10;99502.66;;;30.25;39.55
55442;BME280;41313;58.740;50.174;2022-07-23T17:03:11;99502.78;;;30.11;40.02
55442;BME280;41313;58.740;50.174;2022-07-23T17:08:13;99499.00;;;29.94;40.50
55442;BME280;41313;58.740;50.174;2022-07-23T17:13:14;99500.63;;;29.77;40.71
55442;BME280;41313;58.740;50.174;2022-07-23T17:18:16;99506.41;;;29.55;41.36
55442;BME280;41313;58.740;50.174;2022-07-23T17:23:17;99500.97;;;29.30;41.87
55442;BME280;41313;58.740;50.174;2022-07-23T17:28:19;99478.47;;;28.98;42.67
55442;BME280;41313;58.740;50.174;2022-07-23T17:33:20;99490.59;;;28.89;44.12
55442;BME280;41313;58.740;50.174;2022-07-23T17:38:22;99488.19;;;28.74;43.98
55442;BME280;41313;58.740;50.174;2022-07-23T17:43:25;99472.91;;;28.48;44.21
55442;BME280;41313;58.740;50.174;2022-07-23T17:48:26;99489.72;;;28.56;45.19
55442;BME280;41313;58.740;50.174;2022-07-23T17:53:28;99467.72;;;28.39;45.38
55442;BME280;41313;58.740;50.174;2022-07-23T17:58:30;99495.16;;;28.43;45.06
55442;BME280;41313;58.740;50.174;2022-07-23T18:03:31;99503.50;;;28.35;45.34
55442;BME280;41313;58.740;50.174;2022-07-23T18:08:33;99508.50;;;28.18;45.14
55442;BME280;41313;58.740;50.174;2022-07-23T18:13:34;99500.25;;;28.00;45.51
55442;BME280;41313;58.740;50.174;2022-07-23T18:18:36;99502.53;;;27.83;46.67
55442;BME280;41313;58.740;50.174;2022-07-23T18:23:38;99498.59;;;27.59;47.21
55442;BME280;41313;58.740;50.174;2022-07-23T18:28:40;99502.13;;;27.53;47.50
55442;BME280;41313;58.740;50.174;2022-07-23T18:33:42;99500.25;;;27.46;47.57
55442;BME280;41313;58.740;50.174;2022-07-23T18:38:43;99515.16;;;27.36;48.28
55442;BME280;41313;58.740;50.174;2022-07-23T18:43:45;99495.63;;;27.07;48.43
55442;BME280;41313;58.740;50.174;2022-07-23T18:48:48;99509.75;;;27.16;48.31
55442;BME280;41313;58.740;50.174;2022-07-23T18:53:50;99513.28;;;27.23;48.41
55442;BME280;41313;58.740;50.174;2022-07-23T18:58:51;99488.09;;;26.89;48.51
55442;BME280;41313;58.740;50.174;2022-07-23T19:03:53;99508.66;;;27.03;48.58
55442;BME280;41313;58.740;50.174;2022-07-23T19:08:55;99515.91;;;27.03;49.03
55442;BME280;41313;58.740;50.174;2022-07-23T19:13:57;99521.28;;;26.96;48.72
55442;BME280;41313;58.740;50.174;2022-07-23T19:18:59;99526.88;;;26.95;48.79
55442;BME280;41313;58.740;50.174;2022-07-23T19:24:00;99523.56;;;26.86;49.02
55442;BME280;41313;58.740;50.174;2022-07-23T19:29:02;99529.50;;;26.75;49.33
55442;BME280;41313;58.740;50.174;2022-07-23T19:34:04;99498.66;;;26.43;49.77
55442;BME280;41313;58.740;50.174;2022-07-23T19:39:06;99532.13;;;26.55;49.76
55442;BME280;41313;58.740;50.174;2022-07-23T19:44:07;99521.56;;;26.53;49.69
55442;BME280;41313;58.740;50.174;2022-07-23T19:49:09;99525.78;;;26.41;50.06
55442;BME280;41313;58.740;50.174;2022-07-23T19:54:10;99497.34;;;26.25;50.08
55442;BME280;41313;58.740;50.174;2022-07-23T19:59:11;99523.03;;;26.28;50.20
55442;BME280;41313;58.740;50.174;2022-07-23T20:04:13;99523.28;;;26.33;49.70
55442;BME280;41313;58.740;50.174;2022-07-23T20:09:15;99527.88;;;26.39;49.71
55442;BME280;41313;58.740;50.174;2022-07-23T20:14:17;99522.75;;;26.16;49.96
55442;BME280;41313;58.740;50.174;2022-07-23T20:19:18;99519.25;;;26.16;50.05
55442;BME280;41313;58.740;50.174;2022-07-23T20:24:20;99524.09;;;25.99;50.15
55442;BME280;41313;58.740;50.174;2022-07-23T20:29:22;99532.47;;;26.10;50.02
55442;BME280;41313;58.740;50.174;2022-07-23T20:34:24;99518.31;;;26.02;49.81
55442;BME280;41313;58.740;50.174;2022-07-23T20:39:26;99519.53;;;25.99;49.87
55442;BME280;41313;58.740;50.174;2022-07-23T20:44:27;99520.75;;;25.97;49.85
55442;BME280;41313;58.740;50.174;2022-07-23T20:49:29;99500.81;;;25.84;49.82
55442;BME280;41313;58.740;50.174;2022-07-23T20:54:30;99520.31;;;25.93;49.64
55442;BME280;41313;58.740;50.174;2022-07-23T20:59:32;99519.56;;;25.78;49.92
55442;BME280;41313;58.740;50.174;2022-07-23T21:04:33;99525.97;;;25.77;49.90
55442;BME280;41313;58.740;50.174;2022-07-23T21:09:34;99523.91;;;25.79;49.81
55442;BME280;41313;58.740;50.174;2022-07-23T21:14:37;99527.00;;;25.76;49.69
55442;BME280;41313;58.740;50.174;2022-07-23T21:19:38;99529.56;;;25.84;49.37
55442;BME280;41313;58.740;50.174;2022-07-23T21:24:40;99529.56;;;25.84;49.39
55442;BME280;41313;58.740;50.174;2022-07-23T21:29:41;99530.22;;;25.86;49.18
55442;BME280;41313;58.740;50.174;2022-07-23T21:34:43;99519.31;;;25.94;48.54
55442;BME280;41313;58.740;50.174;2022-07-23T21:39:44;99515.34;;;25.90;48.77
55442;BME280;41313;58.740;50.174;2022-07-23T21:44:46;99514.53;;;25.96;48.89
55442;BME280;41313;58.740;50.174;2022-07-23T21:49:48;99496.63;;;25.82;48.75
55442;BME280;41313;58.740;50.174;2022-07-23T21:54:50;99524.09;;;25.99;48.58
55442;BME280;41313;58.740;50.174;2022-07-23T21:59:51;99516.38;;;25.89;48.81
55442;BME280;41313;58.740;50.174;2022-07-23T22:04:53;99502.38;;;25.79;49.07
55442;BME280;41313;58.740;50.174;2022-07-23T22:09:54;99523.19;;;25.85;48.95
55442;BME280;41313;58.740;50.174;2022-07-23T22:14:55;99523.19;;;25.85;48.92
55442;BME280;41313;58.740;50.174;2022-07-23T22:19:57;99501.03;;;25.61;49.16
55442;BME280;41313;58.740;50.174;2022-07-23T22:24:59;99503.25;;;25.58;49.25
55442;BME280;41313;58.740;50.174;2022-07-23T22:30:00;99483.25;;;25.17;49.82
55442;BME280;41313;58.740;50.174;2022-07-23T22:35:03;99533.69;;;25.37;50.05
55442;BME280;41313;58.740;50.174;2022-07-23T22:40:06;99536.00;;;25.18;50.40
55442;BME280;41313;58.740;50.174;2022-07-23T22:45:08;99536.63;;;25.20;50.63
55442;BME280;41313;58.740;50.174;2022-07-23T22:50:09;99538.50;;;25.20;50.39
55442;BME280;41313;58.740;50.174;2022-07-23T22:55:11;99535.59;;;25.21;50.48
55442;BME280;41313;58.740;50.174;2022-07-23T23:00:13;99531.72;;;25.09;50.74
55442;BME280;41313;58.740;50.174;2022-07-23T23:05:15;99534.00;;;24.91;51.01
55442;BME280;41313;58.740;50.174;2022-07-23T23:10:17;99535.03;;;24.90;51.19
55442;BME280;41313;58.740;50.174;2022-07-23T23:15:19;99512.09;;;24.72;51.24
55442;BME280;41313;58.740;50.174;2022-07-23T23:20:20;99530.03;;;24.87;51.03
55442;BME280;41313;58.740;50.174;2022-07-23T23:25:22;99525.25;;;24.67;51.76
55442;BME280;41313;58.740;50.174;2022-07-23T23:30:23;99521.34;;;24.70;51.89
55442;BME280;41313;58.740;50.174;2022-07-23T23:35:25;99526.63;;;24.78;51.11
55442;BME280;41313;58.740;50.174;2022-07-23T23:40:27;99522.03;;;24.57;51.84
55442;BME280;41313;58.740;50.174;2022-07-23T23:45:28;99513.03;;;24.50;52.29
55442;BME280;41313;58.740;50.174;2022-07-23T23:50:30;99514.25;;;24.47;52.16
55442;BME280;41313;58.740;50.174;2022-07-23T23:55:32;99484.53;;;24.34;52.11
